sensor_id;sensor_type;location;lat;lon;timestamp;temperature;humidity
27200;DHT22;14714;48.106;11.546;2022-12-29T00:01:57;4.10;99.90
27200;DHT22;14714;48.106;11.546;2022-12-29T00:04:24;4.10;99.90
27200;DHT22;14714;48.106;11.546;2022-12-29T00:06:52;4.10;99.90
27200;DHT22;14714;48.106;11.546;2022-12-29T00:09:18;4.10;99.90
27200;DHT22;14714;48.106;11.546;2022-12-29T00:11:45;4.10;99.90
27200;DHT22;14714;48.106;11.546;2022-12-29T00:14:12;4.10;99.90
27200;DHT22;14714;48.106;11.546;2022-12-29T00:16:58;4.10;99.90
27200;DHT22;14714;48.106;11.546;2022-12-29T00:19:25;4.20;99.90
27200;DHT22;14714;48.106;11.546;2022-12-29T00:22:11;4.10;99.90
27200;DHT22;14714;48.106;11.546;2022-12-29T00:24:57;4.20;99.90
27200;DHT22;14714;48.106;11.546;2022-12-29T00:27:43;4.10;99.90
27200;DHT22;14714;48.106;11.546;2022-12-29T00:30:43;4.20;99.90
27200;DHT22;14714;48.106;11.546;2022-12-29T00:33:31;4.10;99.90
27200;DHT22;14714;48.106;11.546;2022-12-29T00:39:19;4.10;99.90
27200;DHT22;14714;48.106;11.546;2022-12-29T00:42:05;4.10;99.90
27200;DHT22;14714;48.106;11.546;2022-12-29T00:45:05;4.10;99.90
27200;DHT22;14714;48.106;11.546;2022-12-29T00:47:32;4.10;99.90
27200;DHT22;14714;48.106;11.546;2022-12-29T00:49:59;4.10;99.90
27200;DHT22;14714;48.106;11.546;2022-12-29T00:52:26;4.10;99.90
27200;DHT22;14714;48.106;11.546;2022-12-29T00:54:53;4.10;99.90
27200;DHT22;14714;48.106;11.546;2022-12-29T00:57:20;4.10;99.90
27200;DHT22;14714;48.106;11.546;2022-12-29T00:59:46;4.10;99.90
27200;DHT22;14714;48.106;11.546;2022-12-29T01:02:13;4.10;99.90
27200;DHT22;14714;48.106;11.546;2022-12-29T01:04:40;4.00;99.90
27200;DHT22;14714;48.106;11.546;2022-12-29T01:07:07;4.00;99.90
27200;DHT22;14714;48.106;11.546;2022-12-29T01:09:34;4.00;99.90
27200;DHT22;14714;48.106;11.546;2022-12-29T01:12:19;4.00;99.90
27200;DHT22;14714;48.106;11.546;2022-12-29T01:15:07;4.00;99.90
27200;DHT22;14714;48.106;11.546;2022-12-29T01:17:35;4.00;99.90
27200;DHT22;14714;48.106;11.546;2022-12-29T01:20:02;4.00;99.90
27200;DHT22;14714;48.106;11.546;2022-12-29T01:22:29;4.00;99.90
27200;DHT22;14714;48.106;11.546;2022-12-29T01:24:56;4.00;99.90
27200;DHT22;14714;48.106;11.546;2022-12-29T01:27:23;4.00;99.90
27200;DHT22;14714;48.106;11.546;2022-12-29T01:29:50;4.00;99.90
27200;DHT22;14714;48.106;11.546;2022-12-29T01:32:16;4.00;99.90
27200;DHT22;14714;48.106;11.546;2022-12-29T01:34:43;4.00;99.90
27200;DHT22;14714;48.106;11.546;2022-12-29T01:37:11;4.00;99.90
27200;DHT22;14714;48.106;11.546;2022-12-29T01:39:38;4.00;99.90
27200;DHT22;14714;48.106;11.546;2022-12-29T01:42:04;4.00;99.90
27200;DHT22;14714;48.106;11.546;2022-12-29T01:44:54;4.00;99.90
27200;DHT22;14714;48.106;11.546;2022-12-29T01:47:43;4.10;99.90
27200;DHT22;14714;48.106;11.546;2022-12-29T01:53:00;4.10;99.90
27200;DHT22;14714;48.106;11.546;2022-12-29T01:55:32;4.10;99.90
27200;DHT22;14714;48.106;11.546;2022-12-29T01:58:21;4.10;99.90
27200;DHT22;14714;48.106;11.546;2022-12-29T02:00:49;4.10;99.90
27200;DHT22;14714;48.106;11.546;2022-12-29T02:03:17;4.10;99.90
27200;DHT22;14714;48.106;11.546;2022-12-29T02:05:58;4.20;99.90
27200;DHT22;14714;48.106;11.546;2022-12-29T02:08:28;4.20;99.90
27200;DHT22;14714;48.106;11.546;2022-12-29T02:10:56;4.20;99.90
27200;DHT22;14714;48.106;11.546;2022-12-29T02:13:27;4.20;99.90
27200;DHT22;14714;48.106;11.546;2022-12-29T02:26:33;4.20;99.90
27200;DHT22;14714;48.106;11.546;2022-12-29T02:29:21;4.20;99.90
27200;DHT22;14714;48.106;11.546;2022-12-29T02:37:30;4.40;99.90
27200;DHT22;14714;48.106;11.546;2022-12-29T02:40:10;4.40;99.90
27200;DHT22;14714;48.106;11.546;2022-12-29T02:48:20;4.60;99.90
27200;DHT22;14714;48.106;11.546;2022-12-29T02:53:23;4.70;99.90
27200;DHT22;14714;48.106;11.546;2022-12-29T02:56:10;4.80;99.90
27200;DHT22;14714;48.106;11.546;2022-12-29T02:58:37;4.80;99.90
27200;DHT22;14714;48.106;11.546;2022-12-29T03:09:49;4.90;99.90
27200;DHT22;14714;48.106;11.546;2022-12-29T03:12:24;4.90;99.90
27200;DHT22;14714;48.106;11.546;2022-12-29T03:15:21;5.00;99.90
27200;DHT22;14714;48.106;11.546;2022-12-29T03:18:15;5.00;99.90
27200;DHT22;14714;48.106;11.546;2022-12-29T03:21:11;5.10;99.90
27200;DHT22;14714;48.106;11.546;2022-12-29T03:23:41;5.10;99.90
27200;DHT22;14714;48.106;11.546;2022-12-29T03:26:11;5.10;99.90
27200;DHT22;14714;48.106;11.546;2022-12-29T03:28:50;5.20;99.90
27200;DHT22;14714;48.106;11.546;2022-12-29T03:31:19;5.20;99.90
27200;DHT22;14714;48.106;11.546;2022-12-29T03:33:47;5.20;99.90
27200;DHT22;14714;48.106;11.546;2022-12-29T03:36:23;5.30;99.90
27200;DHT22;14714;48.106;11.546;2022-12-29T03:38:59;5.30;99.90
27200;DHT22;14714;48.106;11.546;2022-12-29T03:41:30;5.40;99.90
27200;DHT22;14714;48.106;11.546;2022-12-29T03:43:58;5.40;99.90
27200;DHT22;14714;48.106;11.546;2022-12-29T03:46:25;5.50;99.90
27200;DHT22;14714;48.106;11.546;2022-12-29T03:48:52;5.50;99.90
27200;DHT22;14714;48.106;11.546;2022-12-29T03:51:18;5.60;99.90
27200;DHT22;14714;48.106;11.546;2022-12-29T03:53:45;5.60;99.90
27200;DHT22;14714;48.106;11.546;2022-12-29T03:56:12;5.70;99.90
27200;DHT22;14714;48.106;11.546;2022-12-29T03:58:39;5.70;99.90
27200;DHT22;14714;48.106;11.546;2022-12-29T04:01:06;5.80;99.90
27200;DHT22;14714;48.106;11.546;2022-12-29T04:03:33;5.80;99.90
27200;DHT22;14714;48.106;11.546;2022-12-29T04:06:00;5.80;99.90
27200;DHT22;14714;48.106;11.546;2022-12-29T04:08:27;5.80;99.90
27200;DHT22;14714;48.106;11.546;2022-12-29T04:10:54;5.90;99.90
27200;DHT22;14714;48.106;11.546;2022-12-29T04:13:21;5.90;99.90
27200;DHT22;14714;48.106;11.546;2022-12-29T04:15:47;5.90;99.90
27200;DHT22;14714;48.106;11.546;2022-12-29T04:18:14;5.90;99.90
27200;DHT22;14714;48.106;11.546;2022-12-29T04:20:44;6.00;99.90
27200;DHT22;14714;48.106;11.546;2022-12-29T04:23:27;6.00;99.90
27200;DHT22;14714;48.106;11.546;2022-12-29T04:25:54;6.00;99.90
27200;DHT22;14714;48.106;11.546;2022-12-29T04:28:21;6.10;99.90
27200;DHT22;14714;48.106;11.546;2022-12-29T04:30:48;6.10;99.90
27200;DHT22;14714;48.106;11.546;2022-12-29T04:33:15;6.10;99.90
27200;DHT22;14714;48.106;11.546;2022-12-29T04:35:44;6.10;99.90
27200;DHT22;14714;48.106;11.546;2022-12-29T04:38:11;6.20;99.90
27200;DHT22;14714;48.106;11.546;2022-12-29T04:40:39;6.20;99.90
27200;DHT22;14714;48.106;11.546;2022-12-29T04:43:06;6.20;99.90
27200;DHT22;14714;48.106;11.546;2022-12-29T04:45:33;6.20;99.90
27200;DHT22;14714;48.106;11.546;2022-12-29T04:48:00;6.20;99.90
27200;DHT22;14714;48.106;11.546;2022-12-29T04:50:27;6.30;99.90
27200;DHT22;14714;48.106;11.546;2022-12-29T04:52:54;6.30;99.90
27200;DHT22;14714;48.106;11.546;2022-12-29T04:55:21;6.30;99.90
27200;DHT22;14714;48.106;11.546;2022-12-29T04:57:48;6.30;99.90
27200;DHT22;14714;48.106;11.546;2022-12-29T05:00:15;6.30;99.90
27200;DHT22;14714;48.106;11.546;2022-12-29T05:02:42;6.30;99.90
27200;DHT22;14714;48.106;11.546;2022-12-29T05:05:09;6.40;99.90
27200;DHT22;14714;48.106;11.546;2022-12-29T05:07:36;6.40;99.90
27200;DHT22;14714;48.106;11.546;2022-12-29T05:10:03;6.40;99.90
27200;DHT22;14714;48.106;11.546;2022-12-29T05:12:31;6.40;99.90
27200;DHT22;14714;48.106;11.546;2022-12-29T05:14:58;6.40;99.90
27200;DHT22;14714;48.106;11.546;2022-12-29T05:17:26;6.40;99.90
27200;DHT22;14714;48.106;11.546;2022-12-29T05:19:52;6.50;99.90
27200;DHT22;14714;48.106;11.546;2022-12-29T05:22:19;6.50;99.90
27200;DHT22;14714;48.106;11.546;2022-12-29T05:24:46;6.50;99.90
27200;DHT22;14714;48.106;11.546;2022-12-29T05:27:13;6.50;99.90
27200;DHT22;14714;48.106;11.546;2022-12-29T05:29:40;6.50;99.90
27200;DHT22;14714;48.106;11.546;2022-12-29T05:32:07;6.50;99.90
27200;DHT22;14714;48.106;11.546;2022-12-29T05:34:34;6.50;99.90
27200;DHT22;14714;48.106;11.546;2022-12-29T05:37:00;6.50;99.90
27200;DHT22;14714;48.106;11.546;2022-12-29T05:39:29;6.50;99.90
27200;DHT22;14714;48.106;11.546;2022-12-29T05:41:56;6.50;99.90
27200;DHT22;14714;48.106;11.546;2022-12-29T05:44:22;6.50;99.90
27200;DHT22;14714;48.106;11.546;2022-12-29T05:46:49;6.50;99.90
27200;DHT22;14714;48.106;11.546;2022-12-29T05:49:17;6.50;99.90
27200;DHT22;14714;48.106;11.546;2022-12-29T05:51:44;6.50;99.90
27200;DHT22;14714;48.106;11.546;2022-12-29T05:54:11;6.50;99.90
27200;DHT22;14714;48.106;11.546;2022-12-29T05:56:38;6.50;99.80
27200;DHT22;14714;48.106;11.546;2022-12-29T05:59:05;6.50;99.90
27200;DHT22;14714;48.106;11.546;2022-12-29T06:01:32;6.50;99.90
27200;DHT22;14714;48.106;11.546;2022-12-29T06:04:00;6.50;99.80
27200;DHT22;14714;48.106;11.546;2022-12-29T06:06:27;6.40;99.90
27200;DHT22;14714;48.106;11.546;2022-12-29T06:08:54;6.40;99.90
27200;DHT22;14714;48.106;11.546;2022-12-29T06:11:21;6.40;99.90
27200;DHT22;14714;48.106;11.546;2022-12-29T06:13:48;6.40;99.90
27200;DHT22;14714;48.106;11.546;2022-12-29T06:16:15;6.40;99.90
27200;DHT22;14714;48.106;11.546;2022-12-29T06:18:41;6.30;99.90
27200;DHT22;14714;48.106;11.546;2022-12-29T06:21:08;6.30;99.90
27200;DHT22;14714;48.106;11.546;2022-12-29T06:23:35;6.30;99.90
27200;DHT22;14714;48.106;11.546;2022-12-29T06:26:02;6.30;99.90
27200;DHT22;14714;48.106;11.546;2022-12-29T06:28:28;6.20;99.90
27200;DHT22;14714;48.106;11.546;2022-12-29T06:30:55;6.20;99.90
27200;DHT22;14714;48.106;11.546;2022-12-29T06:33:22;6.20;99.90
27200;DHT22;14714;48.106;11.546;2022-12-29T06:35:49;6.20;99.90
27200;DHT22;14714;48.106;11.546;2022-12-29T06:38:16;6.20;99.90
27200;DHT22;14714;48.106;11.546;2022-12-29T06:40:43;6.20;99.90
27200;DHT22;14714;48.106;11.546;2022-12-29T06:43:11;6.20;99.90
27200;DHT22;14714;48.106;11.546;2022-12-29T06:45:39;6.20;99.90
27200;DHT22;14714;48.106;11.546;2022-12-29T06:48:07;6.10;99.90
27200;DHT22;14714;48.106;11.546;2022-12-29T06:50:34;6.10;99.90
27200;DHT22;14714;48.106;11.546;2022-12-29T06:53:01;6.10;99.90
27200;DHT22;14714;48.106;11.546;2022-12-29T06:55:28;6.10;99.90
27200;DHT22;14714;48.106;11.546;2022-12-29T06:57:56;6.10;99.90
27200;DHT22;14714;48.106;11.546;2022-12-29T07:00:24;6.10;99.90
27200;DHT22;14714;48.106;11.546;2022-12-29T07:02:51;6.10;99.90
27200;DHT22;14714;48.106;11.546;2022-12-29T07:05:18;6.10;99.90
27200;DHT22;14714;48.106;11.546;2022-12-29T07:07:44;6.00;99.90
27200;DHT22;14714;48.106;11.546;2022-12-29T07:10:11;6.10;99.90
27200;DHT22;14714;48.106;11.546;2022-12-29T07:12:38;6.00;99.90
27200;DHT22;14714;48.106;11.546;2022-12-29T07:15:05;6.00;99.90
27200;DHT22;14714;48.106;11.546;2022-12-29T07:17:32;6.00;99.90
27200;DHT22;14714;48.106;11.546;2022-12-29T07:19:59;6.00;99.90
27200;DHT22;14714;48.106;11.546;2022-12-29T07:22:26;6.00;99.90
27200;DHT22;14714;48.106;11.546;2022-12-29T07:24:52;6.00;99.90
27200;DHT22;14714;48.106;11.546;2022-12-29T07:27:19;6.00;99.90
27200;DHT22;14714;48.106;11.546;2022-12-29T07:29:46;6.10;99.90
27200;DHT22;14714;48.106;11.546;2022-12-29T07:32:13;6.10;99.90
27200;DHT22;14714;48.106;11.546;2022-12-29T07:34:40;6.10;99.90
27200;DHT22;14714;48.106;11.546;2022-12-29T07:37:06;6.20;99.90
27200;DHT22;14714;48.106;11.546;2022-12-29T07:39:33;6.20;99.80
27200;DHT22;14714;48.106;11.546;2022-12-29T07:42:00;6.30;99.70
27200;DHT22;14714;48.106;11.546;2022-12-29T07:44:30;6.30;99.80
27200;DHT22;14714;48.106;11.546;2022-12-29T07:46:57;6.30;99.30
27200;DHT22;14714;48.106;11.546;2022-12-29T07:49:26;6.40;99.10
27200;DHT22;14714;48.106;11.546;2022-12-29T07:51:52;6.40;99.00
27200;DHT22;14714;48.106;11.546;2022-12-29T07:54:19;6.50;99.20
27200;DHT22;14714;48.106;11.546;2022-12-29T07:56:46;6.50;99.60
27200;DHT22;14714;48.106;11.546;2022-12-29T07:59:13;6.60;99.10
27200;DHT22;14714;48.106;11.546;2022-12-29T08:01:40;6.70;99.90
27200;DHT22;14714;48.106;11.546;2022-12-29T08:04:07;6.80;99.90
27200;DHT22;14714;48.106;11.546;2022-12-29T08:06:34;7.00;99.30
27200;DHT22;14714;48.106;11.546;2022-12-29T08:09:01;7.10;98.00
27200;DHT22;14714;48.106;11.546;2022-12-29T08:11:38;7.30;97.50
27200;DHT22;14714;48.106;11.546;2022-12-29T08:14:05;7.40;98.10
27200;DHT22;14714;48.106;11.546;2022-12-29T08:16:31;7.60;98.30
27200;DHT22;14714;48.106;11.546;2022-12-29T08:18:59;7.80;98.40
27200;DHT22;14714;48.106;11.546;2022-12-29T08:21:29;7.90;97.20
27200;DHT22;14714;48.106;11.546;2022-12-29T08:23:56;8.10;96.60
27200;DHT22;14714;48.106;11.546;2022-12-29T08:26:23;8.10;96.50
27200;DHT22;14714;48.106;11.546;2022-12-29T08:28:52;8.10;95.90
27200;DHT22;14714;48.106;11.546;2022-12-29T08:31:19;8.20;95.70
27200;DHT22;14714;48.106;11.546;2022-12-29T08:33:46;8.20;95.30
27200;DHT22;14714;48.106;11.546;2022-12-29T08:36:13;8.20;94.30
27200;DHT22;14714;48.106;11.546;2022-12-29T08:38:40;8.30;94.10
27200;DHT22;14714;48.106;11.546;2022-12-29T08:41:07;8.60;94.60
27200;DHT22;14714;48.106;11.546;2022-12-29T08:43:34;8.90;93.90
27200;DHT22;14714;48.106;11.546;2022-12-29T08:46:00;9.20;93.30
27200;DHT22;14714;48.106;11.546;2022-12-29T08:48:27;9.80;92.50
27200;DHT22;14714;48.106;11.546;2022-12-29T08:50:54;10.20;91.60
27200;DHT22;14714;48.106;11.546;2022-12-29T08:53:21;10.70;88.70
27200;DHT22;14714;48.106;11.546;2022-12-29T08:55:56;11.10;86.00
27200;DHT22;14714;48.106;11.546;2022-12-29T08:58:30;11.70;85.50
27200;DHT22;14714;48.106;11.546;2022-12-29T09:00:58;12.20;80.90
27200;DHT22;14714;48.106;11.546;2022-12-29T09:03:25;12.60;79.40
27200;DHT22;14714;48.106;11.546;2022-12-29T09:06:13;13.20;75.50
27200;DHT22;14714;48.106;11.546;2022-12-29T09:08:40;13.50;74.00
27200;DHT22;14714;48.106;11.546;2022-12-29T09:11:15;13.40;73.00
27200;DHT22;14714;48.106;11.546;2022-12-29T09:13:42;13.40;69.80
27200;DHT22;14714;48.106;11.546;2022-12-29T09:16:09;13.30;68.80
27200;DHT22;14714;48.106;11.546;2022-12-29T09:18:36;13.20;70.10
27200;DHT22;14714;48.106;11.546;2022-12-29T09:21:05;13.40;71.50
27200;DHT22;14714;48.106;11.546;2022-12-29T09:23:33;13.50;67.40
27200;DHT22;14714;48.106;11.546;2022-12-29T09:26:01;13.40;66.10
27200;DHT22;14714;48.106;11.546;2022-12-29T09:28:28;13.30;64.70
27200;DHT22;14714;48.106;11.546;2022-12-29T09:30:56;13.20;65.70
27200;DHT22;14714;48.106;11.546;2022-12-29T09:33:24;13.20;64.60
27200;DHT22;14714;48.106;11.546;2022-12-29T09:35:56;13.20;66.00
27200;DHT22;14714;48.106;11.546;2022-12-29T09:38:24;13.10;65.20
27200;DHT22;14714;48.106;11.546;2022-12-29T09:40:55;13.20;65.90
27200;DHT22;14714;48.106;11.546;2022-12-29T09:43:50;13.20;67.30
27200;DHT22;14714;48.106;11.546;2022-12-29T09:46:43;13.30;64.60
27200;DHT22;14714;48.106;11.546;2022-12-29T09:52:55;13.00;65.30
27200;DHT22;14714;48.106;11.546;2022-12-29T09:57:51;12.60;64.50
27200;DHT22;14714;48.106;11.546;2022-12-29T10:00:22;12.40;65.10
27200;DHT22;14714;48.106;11.546;2022-12-29T10:02:51;12.20;64.50
27200;DHT22;14714;48.106;11.546;2022-12-29T10:05:40;12.00;65.50
27200;DHT22;14714;48.106;11.546;2022-12-29T10:10:59;11.70;68.20
27200;DHT22;14714;48.106;11.546;2022-12-29T10:13:41;11.60;66.80
27200;DHT22;14714;48.106;11.546;2022-12-29T10:16:24;11.40;65.40
27200;DHT22;14714;48.106;11.546;2022-12-29T10:21:56;11.20;67.80
27200;DHT22;14714;48.106;11.546;2022-12-29T10:24:29;11.10;66.70
27200;DHT22;14714;48.106;11.546;2022-12-29T10:26:58;11.00;67.40
27200;DHT22;14714;48.106;11.546;2022-12-29T10:29:30;11.00;67.70
27200;DHT22;14714;48.106;11.546;2022-12-29T10:32:07;11.00;69.20
27200;DHT22;14714;48.106;11.546;2022-12-29T10:34:46;11.00;67.80
27200;DHT22;14714;48.106;11.546;2022-12-29T10:37:34;11.00;67.70
27200;DHT22;14714;48.106;11.546;2022-12-29T10:41:02;11.00;67.20
27200;DHT22;14714;48.106;11.546;2022-12-29T10:46:01;11.00;68.00
27200;DHT22;14714;48.106;11.546;2022-12-29T10:48:32;11.10;66.50
27200;DHT22;14714;48.106;11.546;2022-12-29T10:51:02;11.20;68.60
27200;DHT22;14714;48.106;11.546;2022-12-29T10:53:46;11.30;67.40
27200;DHT22;14714;48.106;11.546;2022-12-29T10:56:39;11.50;69.30
27200;DHT22;14714;48.106;11.546;2022-12-29T11:07:39;12.20;68.70
27200;DHT22;14714;48.106;11.546;2022-12-29T11:12:59;12.90;63.90
27200;DHT22;14714;48.106;11.546;2022-12-29T11:15:26;13.20;64.30
27200;DHT22;14714;48.106;11.546;2022-12-29T11:18:01;13.50;64.70
27200;DHT22;14714;48.106;11.546;2022-12-29T11:20:37;13.90;62.90
27200;DHT22;14714;48.106;11.546;2022-12-29T11:23:34;14.10;61.30
27200;DHT22;14714;48.106;11.546;2022-12-29T11:26:14;14.40;59.70
27200;DHT22;14714;48.106;11.546;2022-12-29T11:28:45;14.60;58.70
27200;DHT22;14714;48.106;11.546;2022-12-29T11:31:16;14.80;58.50
27200;DHT22;14714;48.106;11.546;2022-12-29T11:33:44;15.00;58.80
27200;DHT22;14714;48.106;11.546;2022-12-29T11:36:15;15.30;57.00
27200;DHT22;14714;48.106;11.546;2022-12-29T11:38:48;15.40;55.70
27200;DHT22;14714;48.106;11.546;2022-12-29T11:41:28;15.50;55.10
27200;DHT22;14714;48.106;11.546;2022-12-29T11:43:58;15.50;53.50
27200;DHT22;14714;48.106;11.546;2022-12-29T11:46:28;15.50;54.40
27200;DHT22;14714;48.106;11.546;2022-12-29T11:48:56;15.30;54.00
27200;DHT22;14714;48.106;11.546;2022-12-29T11:51:46;15.20;54.10
27200;DHT22;14714;48.106;11.546;2022-12-29T11:54:21;15.00;53.10
27200;DHT22;14714;48.106;11.546;2022-12-29T11:56:50;14.80;55.20
27200;DHT22;14714;48.106;11.546;2022-12-29T12:01:55;14.70;53.90
27200;DHT22;14714;48.106;11.546;2022-12-29T12:04:26;14.60;55.90
27200;DHT22;14714;48.106;11.546;2022-12-29T12:07:02;14.50;54.20
27200;DHT22;14714;48.106;11.546;2022-12-29T12:09:51;14.30;54.30
27200;DHT22;14714;48.106;11.546;2022-12-29T12:12:40;14.10;54.10
27200;DHT22;14714;48.106;11.546;2022-12-29T12:15:16;13.90;55.10
27200;DHT22;14714;48.106;11.546;2022-12-29T12:18:12;13.80;56.20
27200;DHT22;14714;48.106;11.546;2022-12-29T12:26:13;13.70;56.50
27200;DHT22;14714;48.106;11.546;2022-12-29T12:31:24;13.60;56.10
27200;DHT22;14714;48.106;11.546;2022-12-29T12:33:58;13.60;57.20
27200;DHT22;14714;48.106;11.546;2022-12-29T12:50:15;13.50;59.50
27200;DHT22;14714;48.106;11.546;2022-12-29T12:53:01;13.40;59.20
27200;DHT22;14714;48.106;11.546;2022-12-29T13:03:50;13.10;61.60
27200;DHT22;14714;48.106;11.546;2022-12-29T13:06:35;13.10;61.60
27200;DHT22;14714;48.106;11.546;2022-12-29T13:17:25;13.00;62.70
27200;DHT22;14714;48.106;11.546;2022-12-29T13:23:03;13.00;64.10
27200;DHT22;14714;48.106;11.546;2022-12-29T13:28:33;13.00;63.90
27200;DHT22;14714;48.106;11.546;2022-12-29T13:31:24;13.00;64.20
27200;DHT22;14714;48.106;11.546;2022-12-29T13:41:56;13.00;62.10
27200;DHT22;14714;48.106;11.546;2022-12-29T13:44:46;13.00;61.60
27200;DHT22;14714;48.106;11.546;2022-12-29T13:47:18;13.00;61.80
27200;DHT22;14714;48.106;11.546;2022-12-29T13:49:48;12.90;61.60
27200;DHT22;14714;48.106;11.546;2022-12-29T13:55:29;12.70;63.00
27200;DHT22;14714;48.106;11.546;2022-12-29T13:58:26;12.70;62.20
27200;DHT22;14714;48.106;11.546;2022-12-29T14:03:51;12.50;63.50
27200;DHT22;14714;48.106;11.546;2022-12-29T14:06:22;12.40;63.30
27200;DHT22;14714;48.106;11.546;2022-12-29T14:09:01;12.30;64.20
27200;DHT22;14714;48.106;11.546;2022-12-29T14:11:34;12.30;65.50
27200;DHT22;14714;48.106;11.546;2022-12-29T14:14:31;12.20;66.00
27200;DHT22;14714;48.106;11.546;2022-12-29T14:17:11;12.10;66.30
27200;DHT22;14714;48.106;11.546;2022-12-29T14:19:43;12.00;65.20
27200;DHT22;14714;48.106;11.546;2022-12-29T14:22:11;11.90;65.60
27200;DHT22;14714;48.106;11.546;2022-12-29T14:24:41;11.80;65.40
27200;DHT22;14714;48.106;11.546;2022-12-29T14:29:42;11.70;66.80
27200;DHT22;14714;48.106;11.546;2022-12-29T14:35:37;11.50;67.30
27200;DHT22;14714;48.106;11.546;2022-12-29T14:38:19;11.40;67.70
27200;DHT22;14714;48.106;11.546;2022-12-29T14:40:48;11.40;68.10
27200;DHT22;14714;48.106;11.546;2022-12-29T14:43:22;11.30;68.40
27200;DHT22;14714;48.106;11.546;2022-12-29T14:45:59;11.30;68.20
27200;DHT22;14714;48.106;11.546;2022-12-29T14:48:34;11.20;68.60
27200;DHT22;14714;48.106;11.546;2022-12-29T14:51:15;11.10;68.70
27200;DHT22;14714;48.106;11.546;2022-12-29T14:56:17;11.00;68.70
27200;DHT22;14714;48.106;11.546;2022-12-29T14:59:01;10.90;69.30
27200;DHT22;14714;48.106;11.546;2022-12-29T15:01:43;10.90;69.60
27200;DHT22;14714;48.106;11.546;2022-12-29T15:04:18;10.90;70.30
27200;DHT22;14714;48.106;11.546;2022-12-29T15:06:46;10.80;70.40
27200;DHT22;14714;48.106;11.546;2022-12-29T15:09:42;10.80;70.40
27200;DHT22;14714;48.106;11.546;2022-12-29T15:12:42;10.70;70.10
27200;DHT22;14714;48.106;11.546;2022-12-29T15:15:28;10.60;70.10
27200;DHT22;14714;48.106;11.546;2022-12-29T15:17:57;10.60;70.90
27200;DHT22;14714;48.106;11.546;2022-12-29T15:20:38;10.50;70.60
27200;DHT22;14714;48.106;11.546;2022-12-29T15:23:12;10.40;71.30
27200;DHT22;14714;48.106;11.546;2022-12-29T15:26:07;10.30;70.70
27200;DHT22;14714;48.106;11.546;2022-12-29T15:28:43;10.20;70.80
27200;DHT22;14714;48.106;11.546;2022-12-29T15:31:15;10.10;71.60
27200;DHT22;14714;48.106;11.546;2022-12-29T15:33:48;10.10;71.80
27200;DHT22;14714;48.106;11.546;2022-12-29T15:36:20;10.00;71.80
27200;DHT22;14714;48.106;11.546;2022-12-29T15:38:48;9.90;71.90
27200;DHT22;14714;48.106;11.546;2022-12-29T15:41:22;9.90;71.90
27200;DHT22;14714;48.106;11.546;2022-12-29T15:46:26;9.80;71.90
27200;DHT22;14714;48.106;11.546;2022-12-29T15:48:54;9.70;72.20
27200;DHT22;14714;48.106;11.546;2022-12-29T15:51:28;9.60;72.80
27200;DHT22;14714;48.106;11.546;2022-12-29T15:53:57;9.60;72.60
27200;DHT22;14714;48.106;11.546;2022-12-29T15:56:24;9.60;72.80
27200;DHT22;14714;48.106;11.546;2022-12-29T15:58:51;9.50;73.50
27200;DHT22;14714;48.106;11.546;2022-12-29T16:03:53;9.40;73.80
27200;DHT22;14714;48.106;11.546;2022-12-29T16:06:34;9.40;74.20
27200;DHT22;14714;48.106;11.546;2022-12-29T16:09:10;9.30;74.70
27200;DHT22;14714;48.106;11.546;2022-12-29T16:11:44;9.30;75.20
27200;DHT22;14714;48.106;11.546;2022-12-29T16:14:19;9.20;75.70
27200;DHT22;14714;48.106;11.546;2022-12-29T16:16:48;9.20;77.00
27200;DHT22;14714;48.106;11.546;2022-12-29T16:19:26;9.10;77.20
27200;DHT22;14714;48.106;11.546;2022-12-29T16:21:53;9.20;77.80
27200;DHT22;14714;48.106;11.546;2022-12-29T16:24:24;9.10;78.10
27200;DHT22;14714;48.106;11.546;2022-12-29T16:27:12;9.10;78.40
27200;DHT22;14714;48.106;11.546;2022-12-29T16:29:41;9.20;79.20
27200;DHT22;14714;48.106;11.546;2022-12-29T16:32:26;9.10;79.90
27200;DHT22;14714;48.106;11.546;2022-12-29T16:35:13;9.20;80.00
27200;DHT22;14714;48.106;11.546;2022-12-29T16:37:43;9.20;80.20
27200;DHT22;14714;48.106;11.546;2022-12-29T16:43:00;9.20;81.20
27200;DHT22;14714;48.106;11.546;2022-12-29T16:50:42;9.30;83.00
27200;DHT22;14714;48.106;11.546;2022-12-29T16:53:36;9.40;83.30
27200;DHT22;14714;48.106;11.546;2022-12-29T16:56:21;9.40;83.20
27200;DHT22;14714;48.106;11.546;2022-12-29T16:58:52;9.40;83.30
27200;DHT22;14714;48.106;11.546;2022-12-29T17:01:23;9.40;83.30
27200;DHT22;14714;48.106;11.546;2022-12-29T17:03:54;9.40;83.30
27200;DHT22;14714;48.106;11.546;2022-12-29T17:06:23;9.40;84.40
27200;DHT22;14714;48.106;11.546;2022-12-29T17:08:51;9.30;83.50
27200;DHT22;14714;48.106;11.546;2022-12-29T17:11:33;9.30;84.40
27200;DHT22;14714;48.106;11.546;2022-12-29T17:17:18;9.10;85.30
27200;DHT22;14714;48.106;11.546;2022-12-29T17:19:54;9.00;85.80
27200;DHT22;14714;48.106;11.546;2022-12-29T17:22:27;8.90;86.90
27200;DHT22;14714;48.106;11.546;2022-12-29T17:24:55;8.80;88.20
27200;DHT22;14714;48.106;11.546;2022-12-29T17:27:45;8.80;89.00
27200;DHT22;14714;48.106;11.546;2022-12-29T17:30:17;8.70;89.80
27200;DHT22;14714;48.106;11.546;2022-12-29T17:32:52;8.70;90.10
27200;DHT22;14714;48.106;11.546;2022-12-29T17:35:21;8.70;90.50
27200;DHT22;14714;48.106;11.546;2022-12-29T17:37:48;8.70;90.60
27200;DHT22;14714;48.106;11.546;2022-12-29T17:40:25;8.70;91.00
27200;DHT22;14714;48.106;11.546;2022-12-29T17:42:55;8.70;90.90
27200;DHT22;14714;48.106;11.546;2022-12-29T17:45:24;8.60;91.00
27200;DHT22;14714;48.106;11.546;2022-12-29T17:47:51;8.60;91.20
27200;DHT22;14714;48.106;11.546;2022-12-29T17:50:20;8.60;91.30
27200;DHT22;14714;48.106;11.546;2022-12-29T17:53:04;8.60;91.50
27200;DHT22;14714;48.106;11.546;2022-12-29T17:55:31;8.60;91.50
27200;DHT22;14714;48.106;11.546;2022-12-29T17:58:20;8.60;91.40
27200;DHT22;14714;48.106;11.546;2022-12-29T18:00:49;8.70;91.20
27200;DHT22;14714;48.106;11.546;2022-12-29T18:03:20;8.70;91.20
27200;DHT22;14714;48.106;11.546;2022-12-29T18:05:48;8.70;90.40
27200;DHT22;14714;48.106;11.546;2022-12-29T18:08:15;8.70;90.00
27200;DHT22;14714;48.106;11.546;2022-12-29T18:10:42;8.70;89.20
27200;DHT22;14714;48.106;11.546;2022-12-29T18:13:22;8.70;89.00
27200;DHT22;14714;48.106;11.546;2022-12-29T18:15:53;8.60;89.60
27200;DHT22;14714;48.106;11.546;2022-12-29T18:18:22;8.50;88.40
27200;DHT22;14714;48.106;11.546;2022-12-29T18:20:52;8.40;88.30
27200;DHT22;14714;48.106;11.546;2022-12-29T18:23:22;8.30;88.40
27200;DHT22;14714;48.106;11.546;2022-12-29T18:26:00;8.20;88.90
27200;DHT22;14714;48.106;11.546;2022-12-29T18:28:27;8.10;88.60